createdAt,value
2023-01-09T00:01:24.353Z,98966.91
2023-01-09T00:03:52.309Z,98968.25
2023-01-09T00:06:20.788Z,98966.13
2023-01-09T00:08:48.712Z,98955.44
2023-01-09T00:11:16.611Z,98961.84
2023-01-09T00:13:47.057Z,98947.72
2023-01-09T00:16:15.657Z,98940.56
2023-01-09T00:18:43.627Z,98936.56
2023-01-09T00:21:13.154Z,98934.09
2023-01-09T00:23:41.489Z,98929.84
2023-01-09T00:26:11.454Z,98936.41
2023-01-09T00:28:39.810Z,98931.13
2023-01-09T00:31:09.741Z,98934.44
2023-01-09T00:33:42.348Z,98929.09
2023-01-09T00:36:11.136Z,98916.75
2023-01-09T00:38:39.482Z,98919.47
2023-01-09T00:41:09.905Z,98912.31
2023-01-09T00:43:42.901Z,98841.66
2023-01-09T00:46:12.900Z,98913.25
2023-01-09T00:48:43.337Z,98910.63
2023-01-09T00:51:11.260Z,98894.75
2023-01-09T00:53:42.250Z,98906.34
2023-01-09T00:56:14.927Z,98894.25
2023-01-09T00:58:42.903Z,98893.38
2023-01-09T01:01:13.293Z,98899.53
2023-01-09T01:03:41.341Z,98896.47
2023-01-09T01:06:27.155Z,98899.44
2023-01-09T01:08:55.819Z,98901.91
2023-01-09T01:11:24.349Z,98909.06
2023-01-09T01:13:52.925Z,98899.44
2023-01-09T01:16:22.248Z,98904.63
2023-01-09T01:18:50.517Z,98901.41
2023-01-09T01:21:18.931Z,98899.78
2023-01-09T01:23:46.825Z,98897.47
2023-01-09T01:26:17.808Z,98888.09
2023-01-09T01:28:45.916Z,98892.72
2023-01-09T01:31:18.613Z,98898.59
2023-01-09T01:33:48.241Z,98894.44
2023-01-09T01:36:17.516Z,98894.44
2023-01-09T01:38:46.808Z,98890.22
2023-01-09T01:41:29.137Z,98889.31
2023-01-09T01:44:00.152Z,98889.16
2023-01-09T01:46:28.539Z,98853.50
2023-01-09T01:49:02.093Z,98880.88
2023-01-09T01:51:31.499Z,98878.31
2023-01-09T01:54:03.892Z,98887.59
2023-01-09T01:56:36.425Z,98883.34
2023-01-09T01:59:10.323Z,98885.31
2023-01-09T02:01:41.167Z,98885.53
2023-01-09T02:04:11.257Z,98881.28
2023-01-09T02:06:39.764Z,98874.31
2023-01-09T02:09:07.873Z,98875.31
2023-01-09T02:11:36.007Z,98871.16
2023-01-09T02:14:04.187Z,98870.44
2023-01-09T02:16:47.765Z,98870.56
2023-01-09T02:19:41.290Z,98862.13
2023-01-09T02:22:19.490Z,98862.78
2023-01-09T02:25:03.504Z,98861.94
2023-01-09T02:28:03.292Z,98866.34
2023-01-09T02:30:41.774Z,98856.66
2023-01-09T02:33:38.003Z,98861.19
2023-01-09T02:36:17.056Z,98849.91
2023-01-09T02:38:55.178Z,98854.69
2023-01-09T02:41:26.205Z,98857.41
2023-01-09T02:44:19.528Z,98854.94
2023-01-09T02:46:49.401Z,98850.59
2023-01-09T02:49:17.984Z,98852.44
2023-01-09T02:51:52.902Z,98844.63
2023-01-09T02:54:30.272Z,98849.91
2023-01-09T02:57:12.227Z,98835.88
2023-01-09T02:59:55.965Z,98834.91
2023-01-09T03:02:40.102Z,98833.63
2023-01-09T03:05:13.967Z,98827.44
2023-01-09T03:07:46.404Z,98827.44
2023-01-09T03:10:19.390Z,98819.50
2023-01-09T03:12:49.832Z,98823.84
2023-01-09T03:15:22.069Z,98817.66
2023-01-09T03:17:53.214Z,98820.44
2023-01-09T03:20:27.419Z,98816.88
2023-01-09T03:22:57.228Z,98816.72
2023-01-09T03:25:26.265Z,98821.16
2023-01-09T03:27:57.495Z,98800.72
2023-01-09T03:30:26.105Z,98820.09
2023-01-09T03:32:55.629Z,98821.91
2023-01-09T03:35:24.175Z,98813.91
2023-01-09T03:37:52.211Z,98813.91
2023-01-09T03:40:20.797Z,98811.25
2023-01-09T03:42:48.949Z,98781.47
2023-01-09T03:45:17.622Z,98800.78
2023-01-09T03:47:45.522Z,98817.31
2023-01-09T03:50:14.864Z,98819.09
2023-01-09T03:52:42.775Z,98814.59
2023-01-09T03:55:10.712Z,98803.25
2023-01-09T03:57:38.593Z,98808.38
2023-01-09T04:00:08.446Z,98807.53
2023-01-09T04:02:40.001Z,98816.38
2023-01-09T04:05:09.198Z,98811.09
2023-01-09T04:07:38.770Z,98809.31
2023-01-09T04:10:07.804Z,98808.38
2023-01-09T04:12:35.746Z,98807.34
2023-01-09T04:15:03.863Z,98803.78
2023-01-09T04:17:31.772Z,98807.19
2023-01-09T04:20:00.168Z,98805.47
2023-01-09T04:22:28.087Z,98800.97
2023-01-09T04:24:57.365Z,98809.72
2023-01-09T04:27:25.249Z,98799.28
2023-01-09T04:29:53.211Z,98807.34
2023-01-09T04:32:21.223Z,98817.81
2023-01-09T04:34:49.152Z,98823.88
2023-01-09T04:37:17.100Z,98817.75
2023-01-09T04:39:45.873Z,98821.31
2023-01-09T04:42:15.138Z,98803.00
2023-01-09T04:44:42.974Z,98811.69
2023-01-09T04:47:13.515Z,98803.84
2023-01-09T04:49:41.489Z,98808.38
2023-01-09T04:52:09.324Z,98819.69
2023-01-09T04:54:39.498Z,98819.78
2023-01-09T04:57:07.586Z,98822.59
2023-01-09T04:59:37.040Z,98788.59
2023-01-09T05:02:05.035Z,98819.25
2023-01-09T05:04:33.232Z,98831.09
2023-01-09T05:07:01.174Z,98830.31
2023-01-09T05:09:29.597Z,98835.94
2023-01-09T05:11:57.499Z,98841.47
2023-01-09T05:14:25.366Z,98846.09
2023-01-09T05:16:54.691Z,98833.97
2023-01-09T05:19:23.604Z,98847.88
2023-01-09T05:21:51.725Z,98853.16
2023-01-09T05:24:19.751Z,98854.00
2023-01-09T05:26:47.993Z,98852.44
2023-01-09T05:29:15.891Z,98868.28
2023-01-09T05:31:45.105Z,98862.94
2023-01-09T05:34:14.393Z,98852.63
2023-01-09T05:36:42.388Z,98864.72
2023-01-09T05:39:12.703Z,98863.94
2023-01-09T05:41:40.699Z,98873.56
2023-01-09T05:44:08.733Z,98881.66
2023-01-09T05:46:36.680Z,98868.63
2023-01-09T05:49:04.854Z,98881.06
2023-01-09T05:51:34.056Z,98888.88
2023-01-09T05:54:02.823Z,98886.34
2023-01-09T05:56:30.992Z,98891.63
2023-01-09T05:58:58.910Z,98817.81
2023-01-09T06:01:26.834Z,98899.69
2023-01-09T06:03:54.953Z,98895.31
2023-01-09T06:06:24.130Z,98892.75
2023-01-09T06:08:53.421Z,98897.03
2023-01-09T06:11:21.416Z,98896.88
2023-01-09T06:13:49.369Z,98903.94
2023-01-09T06:16:17.305Z,98901.38
2023-01-09T06:18:45.206Z,98898.75
2023-01-09T06:21:13.135Z,98901.47
2023-01-09T06:23:41.028Z,98903.25
2023-01-09T06:26:10.315Z,98909.91
2023-01-09T06:28:38.205Z,98910.50
2023-01-09T06:31:06.389Z,98928.16
2023-01-09T06:33:34.291Z,98930.41
2023-01-09T06:36:02.236Z,98935.34
2023-01-09T06:38:30.135Z,98944.38
2023-01-09T06:40:58.081Z,98944.28
2023-01-09T06:43:27.453Z,98953.81
2023-01-09T06:45:55.368Z,98960.81
2023-01-09T06:48:24.927Z,98962.53
2023-01-09T06:50:52.934Z,98967.31
2023-01-09T06:53:21.359Z,98962.81
2023-01-09T06:55:49.462Z,98967.44
2023-01-09T06:58:18.086Z,98974.41
2023-01-09T07:00:49.336Z,98956.78
2023-01-09T07:03:19.792Z,98979.00
2023-01-09T07:05:48.014Z,98977.44
2023-01-09T07:08:16.167Z,98867.81
2023-01-09T07:10:44.764Z,98987.06
2023-01-09T07:13:12.949Z,98994.31
2023-01-09T07:15:40.909Z,98995.94
2023-01-09T07:18:10.340Z,99009.16
2023-01-09T07:20:40.771Z,98998.06
2023-01-09T07:23:08.984Z,99005.03
2023-01-09T07:25:36.913Z,99014.25
2023-01-09T07:28:04.904Z,99014.31
2023-01-09T07:30:33.413Z,99026.34
2023-01-09T07:33:03.818Z,99031.34
2023-01-09T07:35:33.496Z,99026.47
2023-01-09T07:38:01.458Z,99033.53
2023-01-09T07:40:29.566Z,99023.28
2023-01-09T07:42:57.638Z,99039.53
2023-01-09T07:45:25.563Z,99039.38
2023-01-09T07:47:53.462Z,99052.91
2023-01-09T07:50:21.747Z,99022.97
2023-01-09T07:52:51.005Z,99056.66
2023-01-09T07:55:19.006Z,99061.56
2023-01-09T07:57:49.819Z,99050.13
2023-01-09T08:00:18.535Z,99064.34
2023-01-09T08:02:46.583Z,99064.72
2023-01-09T08:05:15.872Z,98979.97
2023-01-09T08:07:44.080Z,99069.81
2023-01-09T08:10:14.023Z,99032.25
2023-01-09T08:12:44.482Z,99064.72
2023-01-09T08:15:12.987Z,99078.81
2023-01-09T08:17:42.942Z,99077.50
2023-01-09T08:20:12.733Z,99089.25
2023-01-09T08:22:42.518Z,99091.81
2023-01-09T08:25:12.485Z,99088.50
2023-01-09T08:27:42.532Z,99096.06
2023-01-09T08:30:12.528Z,99097.28
2023-01-09T08:32:41.235Z,99095.94
2023-01-09T08:35:10.063Z,99104.88
2023-01-09T08:37:38.010Z,99105.03
2023-01-09T08:40:06.852Z,99076.41
2023-01-09T08:42:52.144Z,99114.31
2023-01-09T08:45:39.258Z,99103.28
2023-01-09T08:48:07.670Z,99100.47
2023-01-09T08:50:35.926Z,99107.56
2023-01-09T08:53:03.842Z,99103.56
2023-01-09T08:55:31.783Z,99111.38
2023-01-09T08:58:01.036Z,99095.63
2023-01-09T09:00:30.428Z,99098.97
2023-01-09T09:03:00.343Z,99105.56
2023-01-09T09:05:30.689Z,99097.97
2023-01-09T09:07:59.280Z,99099.78
2023-01-09T09:10:29.440Z,99090.44
2023-01-09T09:12:59.065Z,99100.56
2023-01-09T09:15:28.403Z,99100.69
2023-01-09T09:17:59.334Z,99100.97
2023-01-09T09:20:29.780Z,99099.91
2023-01-09T09:22:57.858Z,99104.09
2023-01-09T09:25:26.236Z,99108.34
2023-01-09T09:27:55.899Z,99111.09
2023-01-09T09:30:24.363Z,99118.91
2023-01-09T09:32:52.577Z,99108.91
2023-01-09T09:35:22.491Z,99114.59
2023-01-09T09:37:57.937Z,99115.78
2023-01-09T09:41:05.729Z,99117.50
2023-01-09T09:44:16.387Z,99109.34
2023-01-09T09:46:51.475Z,99114.28
2023-01-09T09:49:28.136Z,99117.78
2023-01-09T09:52:08.123Z,99114.91
2023-01-09T09:54:41.244Z,99123.66
2023-01-09T09:57:15.704Z,99131.88
2023-01-09T09:59:45.521Z,99133.66
2023-01-09T10:02:26.121Z,99133.53
2023-01-09T10:05:00.268Z,99140.50
2023-01-09T10:07:34.524Z,99122.19
2023-01-09T10:10:06.896Z,99142.47
2023-01-09T10:12:40.238Z,99080.66
2023-01-09T10:15:17.110Z,99151.09
2023-01-09T10:17:55.479Z,99142.38
2023-01-09T10:20:59.346Z,99135.31
2023-01-09T10:24:42.101Z,60620.00
2023-01-09T10:28:22.719Z,60620.00
2023-01-09T10:31:56.034Z,60620.00
2023-01-09T10:35:48.367Z,60620.00
2023-01-09T10:38:57.266Z,99135.31
2023-01-09T10:41:30.523Z,99107.94
2023-01-09T10:44:03.520Z,99105.69
2023-01-09T10:46:39.099Z,99110.72
2023-01-09T10:49:13.752Z,99114.41
2023-01-09T10:51:47.186Z,99116.19
2023-01-09T10:54:20.007Z,99114.47
2023-01-09T10:56:56.000Z,99120.69
2023-01-09T10:59:24.555Z,99111.41
2023-01-09T11:01:52.593Z,99117.63
2023-01-09T11:04:25.645Z,99093.41
2023-01-09T11:06:57.941Z,99113.88
2023-01-09T11:09:27.364Z,99126.84
2023-01-09T11:11:55.320Z,99124.97
2023-01-09T11:14:27.832Z,99116.47
2023-01-09T11:16:57.896Z,99120.06
2023-01-09T11:19:27.409Z,99115.59
2023-01-09T11:22:09.481Z,99117.50
2023-01-09T11:24:38.775Z,99115.78
2023-01-09T11:27:27.622Z,99117.66
2023-01-09T11:30:20.035Z,99113.28
2023-01-09T11:32:49.027Z,99122.78
2023-01-09T11:35:21.399Z,99119.88
2023-01-09T11:37:59.271Z,99121.41
2023-01-09T11:40:30.632Z,99123.97
2023-01-09T11:43:06.056Z,99118.69
2023-01-09T11:45:36.764Z,99091.22
2023-01-09T11:48:18.118Z,99116.34
2023-01-09T11:50:56.018Z,99123.75
2023-01-09T11:53:24.786Z,99121.88
2023-01-09T11:56:01.000Z,99121.16
2023-01-09T11:58:33.296Z,99130.56
2023-01-09T12:01:09.930Z,99134.75
2023-01-09T12:04:18.183Z,99130.97
2023-01-09T12:07:00.567Z,99125.66
2023-01-09T12:09:37.464Z,99128.72
2023-01-09T12:12:19.067Z,99122.94
2023-01-09T12:15:04.170Z,99133.44
2023-01-09T12:17:49.019Z,99092.97
2023-01-09T12:20:34.548Z,99116.84
2023-01-09T12:23:20.052Z,99109.44
2023-01-09T12:25:54.597Z,99113.88
2023-01-09T12:28:49.008Z,99113.44
2023-01-09T12:31:35.977Z,99103.50
2023-01-09T12:34:17.951Z,99124.66
2023-01-09T12:36:58.955Z,99122.28
2023-01-09T12:39:36.594Z,99124.84
2023-01-09T12:42:32.934Z,99115.88
2023-01-09T12:45:07.709Z,99121.00
2023-01-09T12:47:47.270Z,99116.09
2023-01-09T12:50:53.968Z,99118.88
2023-01-09T12:53:26.837Z,99092.03
2023-01-09T12:56:01.560Z,99109.13
2023-01-09T12:58:40.510Z,99114.44
2023-01-09T13:01:16.066Z,99093.69
2023-01-09T13:03:49.503Z,99111.22
2023-01-09T13:06:20.375Z,99122.06
2023-01-09T13:08:54.442Z,99122.06
2023-01-09T13:11:29.607Z,99123.44
2023-01-09T13:14:03.393Z,99122.41
2023-01-09T13:16:41.507Z,99127.03
2023-01-09T13:19:17.882Z,99131.47
2023-01-09T13:21:46.998Z,99134.28
2023-01-09T13:24:21.291Z,99138.25
2023-01-09T13:26:54.312Z,99140.72
2023-01-09T13:29:28.644Z,99139.94
2023-01-09T13:32:25.670Z,99142.78
2023-01-09T13:34:57.262Z,99131.91
2023-01-09T13:37:28.282Z,99132.75
2023-01-09T13:39:58.117Z,99129.34
2023-01-09T13:42:46.270Z,99139.00
2023-01-09T13:45:24.754Z,99115.72
2023-01-09T13:48:33.759Z,99133.47
2023-01-09T13:51:50.806Z,99138.75
2023-01-09T13:55:07.364Z,99146.78
2023-01-09T13:57:38.457Z,99141.56
2023-01-09T14:00:44.342Z,99133.81
2023-01-09T14:03:21.956Z,99146.28
2023-01-09T14:06:19.190Z,99152.69
2023-01-09T14:08:50.396Z,99148.41
2023-01-09T14:11:21.606Z,99144.31
2023-01-09T14:14:05.464Z,99153.47
2023-01-09T14:16:36.497Z,99171.13
2023-01-09T14:19:09.164Z,99173.94
2023-01-09T14:21:50.871Z,99179.06
2023-01-09T14:24:29.926Z,99184.78
2023-01-09T14:26:59.565Z,99187.00
2023-01-09T14:29:47.289Z,99186.69
2023-01-09T14:32:38.875Z,99194.00
2023-01-09T14:35:16.329Z,99191.03
2023-01-09T14:37:47.113Z,99195.19
2023-01-09T14:40:22.905Z,99195.91
2023-01-09T14:42:54.431Z,99203.56
2023-01-09T14:45:25.862Z,99209.56
2023-01-09T14:47:59.307Z,99199.03
2023-01-09T14:50:34.147Z,99215.66
2023-01-09T14:53:06.802Z,99216.00
2023-01-09T14:55:46.501Z,99221.03
2023-01-09T14:59:19.369Z,60620.00
2023-01-09T15:02:49.511Z,60620.00
2023-01-09T15:06:22.395Z,60620.00
2023-01-09T15:09:51.747Z,60620.00
2023-01-09T15:13:27.622Z,60620.00
2023-01-09T15:15:56.105Z,99240.31
2023-01-09T15:18:29.104Z,99244.50
2023-01-09T15:21:00.450Z,99263.78
2023-01-09T15:23:30.729Z,99238.34
2023-01-09T15:26:12.643Z,99266.97
2023-01-09T15:28:43.742Z,99259.81
2023-01-09T15:31:15.999Z,99251.44
2023-01-09T15:33:48.351Z,99277.22
2023-01-09T15:36:20.514Z,99277.06
2023-01-09T15:38:50.804Z,99258.69
2023-01-09T15:41:38.842Z,99288.00
2023-01-09T15:44:13.950Z,99299.75
2023-01-09T15:46:43.386Z,99310.19
2023-01-09T15:49:14.874Z,99274.41
2023-01-09T15:51:45.194Z,99331.91
2023-01-09T15:54:15.657Z,99337.91
2023-01-09T15:56:45.787Z,99340.22
2023-01-09T15:59:24.578Z,99347.63
2023-01-09T16:02:19.739Z,99352.22
2023-01-09T16:04:51.184Z,99344.94
2023-01-09T16:07:21.827Z,99342.56
2023-01-09T16:09:52.635Z,99341.03
2023-01-09T16:12:24.642Z,99359.06
2023-01-09T16:14:55.087Z,99367.09
2023-01-09T16:17:26.524Z,99363.75
2023-01-09T16:19:58.087Z,99370.81
2023-01-09T16:22:28.522Z,99341.94
2023-01-09T16:24:58.440Z,99367.88
2023-01-09T16:27:28.687Z,99383.34
2023-01-09T16:29:58.550Z,99387.84
2023-01-09T16:32:30.497Z,99382.63
2023-01-09T16:35:05.590Z,99391.34
2023-01-09T16:37:34.661Z,99391.41
2023-01-09T16:40:32.087Z,99394.84
2023-01-09T16:43:00.810Z,99396.28
2023-01-09T16:45:31.272Z,99406.84
2023-01-09T16:47:59.571Z,99411.56
2023-01-09T16:50:29.180Z,99409.16
2023-01-09T16:52:58.308Z,99260.38
2023-01-09T16:55:26.284Z,99419.59
2023-01-09T16:57:54.590Z,99426.38
2023-01-09T17:00:22.927Z,99434.66
2023-01-09T17:02:50.874Z,99436.63
2023-01-09T17:05:18.961Z,99438.78
2023-01-09T17:07:48.803Z,99444.72
2023-01-09T17:10:21.347Z,99435.22
2023-01-09T17:12:49.943Z,99456.19
2023-01-09T17:15:17.879Z,99455.19
2023-01-09T17:17:46.072Z,99455.97
2023-01-09T17:20:21.208Z,99461.25
2023-01-09T17:22:50.581Z,99468.53
2023-01-09T17:25:36.159Z,99474.72
2023-01-09T17:28:22.283Z,99486.94
2023-01-09T17:30:50.407Z,99495.78
2023-01-09T17:33:19.387Z,99501.97
2023-01-09T17:35:47.392Z,99497.59
2023-01-09T17:38:17.528Z,99503.94
2023-01-09T17:40:46.257Z,99500.94
2023-01-09T17:43:14.169Z,99513.53
2023-01-09T17:45:42.965Z,99521.75
2023-01-09T17:48:22.341Z,99528.03
2023-01-09T17:50:51.530Z,99538.81
2023-01-09T17:53:22.617Z,99535.41
2023-01-09T17:55:50.634Z,99541.66
2023-01-09T17:58:28.846Z,99548.03
2023-01-09T18:00:56.910Z,99543.97
2023-01-09T18:03:30.864Z,99560.41
2023-01-09T18:05:58.891Z,99557.00
2023-01-09T18:08:28.238Z,99563.13
2023-01-09T18:10:56.337Z,99562.38
2023-01-09T18:13:24.412Z,99498.19
2023-01-09T18:15:52.390Z,99568.53
2023-01-09T18:18:22.352Z,99569.47
2023-01-09T18:20:50.972Z,99578.34
2023-01-09T18:23:19.058Z,99586.06
2023-01-09T18:25:48.449Z,99589.66
2023-01-09T18:28:16.924Z,99599.44
2023-01-09T18:30:47.357Z,99601.22
2023-01-09T18:33:17.437Z,99601.97
2023-01-09T18:35:46.387Z,99603.91
2023-01-09T18:38:15.533Z,99606.63
2023-01-09T18:40:43.517Z,99621.09
2023-01-09T18:43:14.239Z,99622.16
2023-01-09T18:45:42.246Z,99624.78
2023-01-09T18:48:12.464Z,99622.44
2023-01-09T18:50:40.406Z,99639.66
2023-01-09T18:53:08.450Z,99638.88
2023-01-09T18:55:37.546Z,99651.16
2023-01-09T18:58:05.789Z,99643.34
2023-01-09T19:00:35.265Z,99641.59
2023-01-09T19:03:03.186Z,99660.75
2023-01-09T19:05:33.175Z,99670.31
2023-01-09T19:08:01.317Z,99665.00
2023-01-09T19:10:29.617Z,99682.66
2023-01-09T19:12:57.588Z,99690.31
2023-01-09T19:15:25.562Z,99689.63
2023-01-09T19:17:57.450Z,99691.38
2023-01-09T19:20:25.539Z,99694.69
2023-01-09T19:22:53.443Z,99694.59
2023-01-09T19:25:21.389Z,99696.47
2023-01-09T19:27:49.302Z,99691.22
2023-01-09T19:30:17.931Z,99699.94
2023-01-09T19:32:45.897Z,99707.81
2023-01-09T19:35:17.348Z,99708.69
2023-01-09T19:37:45.353Z,99705.41
2023-01-09T19:40:13.976Z,99713.94
2023-01-09T19:42:41.948Z,99720.19
2023-01-09T19:45:10.723Z,99731.81
2023-01-09T19:47:38.693Z,99727.41
2023-01-09T19:50:08.292Z,99736.13
2023-01-09T19:52:37.675Z,99737.69
2023-01-09T19:55:06.218Z,99740.09
2023-01-09T19:57:34.093Z,99745.41
2023-01-09T20:00:02.696Z,99740.41
2023-01-09T20:02:40.553Z,99761.97
2023-01-09T20:05:09.537Z,99766.22
2023-01-09T20:07:38.828Z,99769.09
2023-01-09T20:10:08.026Z,99772.41
2023-01-09T20:12:35.980Z,99768.06
2023-01-09T20:15:04.278Z,99780.09
2023-01-09T20:17:33.915Z,99781.69
2023-01-09T20:20:01.780Z,99785.97
2023-01-09T20:22:29.755Z,99793.88
2023-01-09T20:24:59.049Z,99793.06
2023-01-09T20:27:26.977Z,99798.16
2023-01-09T20:29:55.012Z,99806.78
2023-01-09T20:32:23.044Z,99816.56
2023-01-09T20:34:51.143Z,99822.53
2023-01-09T20:37:19.074Z,99826.03
2023-01-09T20:39:47.168Z,99838.22
2023-01-09T20:42:16.454Z,99825.41
2023-01-09T20:44:44.433Z,99847.78
2023-01-09T20:47:12.597Z,99848.91
2023-01-09T20:49:40.490Z,99854.19
2023-01-09T20:52:08.771Z,99861.97
2023-01-09T20:54:40.907Z,99859.16
2023-01-09T20:57:08.849Z,99863.50
2023-01-09T20:59:38.115Z,99870.53
2023-01-09T21:02:06.001Z,99871.38
2023-01-09T21:04:33.959Z,99876.50
2023-01-09T21:07:01.888Z,99884.84
2023-01-09T21:09:29.823Z,99882.66
2023-01-09T21:11:57.761Z,99889.78
2023-01-09T21:14:25.651Z,99888.81
2023-01-09T21:16:55.469Z,99901.28
2023-01-09T21:19:23.873Z,99845.34
2023-01-09T21:21:53.374Z,99912.59
2023-01-09T21:24:21.605Z,99907.47
2023-01-09T21:26:49.545Z,99916.28
2023-01-09T21:29:37.695Z,99916.28
2023-01-09T21:32:07.081Z,99925.00
2023-01-09T21:34:35.206Z,99908.91
2023-01-09T21:37:03.514Z,99934.41
2023-01-09T21:39:31.496Z,99942.97
2023-01-09T21:42:16.800Z,99948.94
2023-01-09T21:45:02.419Z,99895.66
2023-01-09T21:47:34.114Z,99951.50
2023-01-09T21:50:02.045Z,99955.25
2023-01-09T21:52:30.303Z,99961.19
2023-01-09T21:54:58.594Z,99967.31
2023-01-09T21:57:26.512Z,99969.97
2023-01-09T21:59:54.517Z,99974.41
2023-01-09T22:02:22.543Z,99987.53
2023-01-09T22:04:51.881Z,99990.16
2023-01-09T22:07:20.049Z,99988.94
2023-01-09T22:09:48.101Z,99994.00
2023-01-09T22:12:16.052Z,100007.41
2023-01-09T22:14:44.117Z,100006.50
2023-01-09T22:17:12.051Z,100011.09
2023-01-09T22:19:40.005Z,100012.09
2023-01-09T22:22:09.323Z,99998.16
2023-01-09T22:24:37.441Z,100025.91
2023-01-09T22:27:05.716Z,99951.97
2023-01-09T22:29:34.134Z,100034.00
2023-01-09T22:32:02.164Z,100018.69
2023-01-09T22:34:30.890Z,100041.41
2023-01-09T22:36:59.197Z,100053.72
2023-01-09T22:39:29.303Z,100021.19
2023-01-09T22:41:59.097Z,100058.06
2023-01-09T22:44:27.485Z,100063.72
2023-01-09T22:46:56.606Z,100068.06
2023-01-09T22:49:29.963Z,100050.91
2023-01-09T22:51:58.910Z,100074.69
2023-01-09T22:54:31.247Z,100078.06
2023-01-09T22:57:00.111Z,100082.56
2023-01-09T22:59:29.018Z,100079.22
2023-01-09T23:01:59.079Z,100078.16
2023-01-09T23:04:27.894Z,100089.53
2023-01-09T23:06:56.614Z,100094.72
2023-01-09T23:09:25.149Z,100094.78
2023-01-09T23:12:03.312Z,100095.53
2023-01-09T23:14:32.166Z,100105.34
2023-01-09T23:17:00.296Z,100109.88
2023-01-09T23:19:29.353Z,100103.91
2023-01-09T23:21:58.359Z,100108.56
2023-01-09T23:24:27.374Z,100112.34
2023-01-09T23:26:57.529Z,100117.75
2023-01-09T23:29:26.276Z,100120.63
2023-01-09T23:31:54.452Z,100129.03
2023-01-09T23:34:25.633Z,100130.91
2023-01-09T23:36:55.333Z,100124.72
2023-01-09T23:39:23.308Z,100086.78
2023-01-09T23:42:08.668Z,100136.19
2023-01-09T23:44:37.885Z,100136.19
2023-01-09T23:47:06.021Z,100142.34
2023-01-09T23:49:34.159Z,100154.50
2023-01-09T23:52:05.952Z,100159.03
2023-01-09T23:54:33.954Z,100158.88
2023-01-09T23:57:02.050Z,100145.31
2023-01-09T23:59:29.972Z,100163.69
